createdAt,value
2019-04-26T00:01:55.075Z,55.48
2019-04-26T00:04:25.916Z,55.03
2019-04-26T00:06:56.521Z,55.06
2019-04-26T00:09:38.136Z,55.75
2019-04-26T00:12:30.678Z,55.96
2019-04-26T00:15:19.462Z,55.33
2019-04-26T00:17:58.468Z,56.62
2019-04-26T00:20:29.032Z,56.80
2019-04-26T00:22:59.604Z,55.80
2019-04-26T00:25:30.150Z,55.48
2019-04-26T00:28:00.633Z,56.98
2019-04-26T00:30:31.376Z,57.10
2019-04-26T00:33:02.124Z,57.85
2019-04-26T00:35:32.660Z,56.46
2019-04-26T00:38:03.205Z,57.23
2019-04-26T00:40:34.341Z,57.39
2019-04-26T00:43:05.187Z,56.25
2019-04-26T00:45:38.215Z,55.66
2019-04-26T00:48:10.484Z,55.41
2019-04-26T00:50:41.458Z,54.65
2019-04-26T00:53:13.244Z,54.34
2019-04-26T00:55:44.868Z,52.18
2019-04-26T00:58:16.606Z,52.44
2019-04-26T01:00:49.937Z,52.77
2019-04-26T01:03:20.663Z,49.33
2019-04-26T01:05:59.779Z,50.82
2019-04-26T01:08:23.601Z,51.06
2019-04-26T01:10:54.244Z,49.56
2019-04-26T01:13:24.730Z,50.87
2019-04-26T01:15:55.431Z,51.74
2019-04-26T01:18:26.430Z,51.95
2019-04-26T01:21:00.141Z,51.73
2019-04-26T01:23:33.910Z,52.30
2019-04-26T01:26:09.338Z,52.44
2019-04-26T01:29:07.069Z,53.46
2019-04-26T01:31:48.415Z,50.08
2019-04-26T01:34:20.290Z,50.52
2019-04-26T01:36:53.874Z,49.48
2019-04-26T01:39:25.556Z,48.87
2019-04-26T01:42:12.256Z,49.36
2019-04-26T01:44:56.630Z,48.08
2019-04-26T01:47:28.312Z,47.55
2019-04-26T01:49:59.290Z,47.93
2019-04-26T01:52:29.779Z,48.52
2019-04-26T01:55:00.167Z,49.33
2019-04-26T01:57:32.392Z,49.05
2019-04-26T02:00:16.243Z,49.19
2019-04-26T02:02:57.008Z,49.55
2019-04-26T02:05:28.013Z,50.12
2019-04-26T02:07:59.004Z,50.85
2019-04-26T02:10:30.678Z,51.00
2019-04-26T02:13:02.288Z,51.25
2019-04-26T02:15:34.179Z,51.83
2019-04-26T02:18:05.106Z,52.33
2019-04-26T02:21:20.366Z,52.19
2019-04-26T02:23:59.515Z,52.81
2019-04-26T02:26:39.975Z,53.71
2019-04-26T02:29:17.112Z,54.20
2019-04-26T02:31:53.486Z,54.24
2019-04-26T02:34:27.213Z,53.89
2019-04-26T02:37:00.281Z,54.57
2019-04-26T02:39:37.730Z,54.95
2019-04-26T02:42:24.204Z,54.85
2019-04-26T02:48:32.654Z,54.95
2019-04-26T02:51:09.513Z,55.44
2019-04-26T02:54:08.978Z,55.88
2019-04-26T02:56:42.504Z,55.69
2019-04-26T02:59:44.792Z,56.10
2019-04-26T03:02:36.150Z,55.82
2019-04-26T03:05:09.889Z,56.15
2019-04-26T03:07:57.717Z,56.27
2019-04-26T03:10:43.517Z,56.31
2019-04-26T03:13:30.744Z,56.81
2019-04-26T03:16:22.508Z,56.80
2019-04-26T03:19:04.692Z,57.60
2019-04-26T03:22:07.873Z,57.89
2019-04-26T03:24:56.388Z,58.04
2019-04-26T03:28:03.175Z,58.32
2019-04-26T03:30:56.861Z,58.44
2019-04-26T03:34:21.174Z,59.78
2019-04-26T03:37:59.412Z,59.95
2019-04-26T03:41:05.478Z,60.79
2019-04-26T03:44:22.648Z,61.77
2019-04-26T03:46:59.629Z,61.74
2019-04-26T03:50:14.151Z,61.79
2019-04-26T03:53:35.501Z,61.86
2019-04-26T03:56:26.420Z,62.51
2019-04-26T03:59:24.533Z,62.58
2019-04-26T04:02:24.244Z,62.81
2019-04-26T04:05:19.121Z,63.01
2019-04-26T04:07:52.771Z,63.57
2019-04-26T04:10:29.273Z,63.78
2019-04-26T04:13:17.504Z,63.87
2019-04-26T04:15:51.378Z,63.90
2019-04-26T04:18:25.387Z,64.19
2019-04-26T04:21:43.058Z,64.43
2019-04-26T04:24:31.847Z,64.59
2019-04-26T04:27:45.936Z,64.92
2019-04-26T04:31:02.921Z,65.46
2019-04-26T04:34:16.340Z,65.69
2019-04-26T04:36:51.530Z,65.21
2019-04-26T04:40:01.533Z,65.33
2019-04-26T04:42:52.657Z,65.38
2019-04-26T04:46:00.423Z,65.79
2019-04-26T04:49:06.476Z,65.73
2019-04-26T04:52:46.471Z,65.32
2019-04-26T04:56:25.735Z,65.26
2019-04-26T04:59:00.304Z,65.04
2019-04-26T05:02:15.278Z,65.74
2019-04-26T05:05:22.921Z,65.15
2019-04-26T05:08:17.788Z,65.18
2019-04-26T05:11:17.339Z,64.66
2019-04-26T05:14:06.347Z,64.14
2019-04-26T05:17:25.002Z,63.58
2019-04-26T05:20:28.520Z,63.23
2019-04-26T05:23:56.786Z,63.97
2019-04-26T05:27:20.648Z,63.35
2019-04-26T05:31:16.210Z,62.63
2019-04-26T05:34:49.008Z,62.07
2019-04-26T05:37:57.265Z,61.87
2019-04-26T05:41:27.890Z,61.71
2019-04-26T05:44:25.263Z,62.22
2019-04-26T05:47:40.601Z,61.26
2019-04-26T05:51:12.246Z,60.79
2019-04-26T05:54:26.282Z,61.37
2019-04-26T05:57:51.464Z,62.30
2019-04-26T06:00:47.365Z,60.96
2019-04-26T06:04:16.245Z,61.33
2019-04-26T06:07:19.243Z,59.47
2019-04-26T06:10:26.819Z,59.26
2019-04-26T06:13:29.186Z,59.63
2019-04-26T06:16:19.062Z,58.71
2019-04-26T06:19:29.383Z,58.53
2019-04-26T06:22:13.048Z,58.51
2019-04-26T06:25:30.924Z,58.57
2019-04-26T06:28:39.511Z,57.87
2019-04-26T06:31:27.658Z,57.20
2019-04-26T06:34:36.259Z,57.41
2019-04-26T06:37:21.271Z,58.62
2019-04-26T06:40:16.042Z,57.22
2019-04-26T06:43:28.464Z,56.80
2019-04-26T06:46:56.288Z,56.35
2019-04-26T06:50:10.032Z,55.11
2019-04-26T06:52:58.446Z,55.64
2019-04-26T06:55:47.025Z,54.69
2019-04-26T06:59:06.463Z,54.18
2019-04-26T07:01:54.823Z,54.34
2019-04-26T07:05:02.994Z,54.67
2019-04-26T07:08:38.041Z,53.95
2019-04-26T07:12:29.424Z,53.72
2019-04-26T07:15:48.752Z,53.93
2019-04-26T07:19:14.179Z,52.46
2019-04-26T07:22:38.915Z,52.38
2019-04-26T07:26:20.433Z,49.93
2019-04-26T07:29:47.113Z,48.96
2019-04-26T07:32:43.803Z,47.74
2019-04-26T07:35:48.641Z,47.26
2019-04-26T07:39:13.280Z,46.43
2019-04-26T07:42:21.587Z,45.18
2019-04-26T07:45:45.524Z,43.72
2019-04-26T07:49:10.258Z,42.89
2019-04-26T07:52:37.079Z,41.57
2019-04-26T07:55:51.551Z,40.94
2019-04-26T07:59:26.053Z,40.93
2019-04-26T08:02:32.544Z,39.70
2019-04-26T08:05:18.487Z,40.99
2019-04-26T08:07:56.103Z,41.10
2019-04-26T08:10:29.268Z,40.74
2019-04-26T08:13:11.134Z,40.95
2019-04-26T08:16:08.633Z,42.65
2019-04-26T08:18:51.177Z,42.70
2019-04-26T08:21:31.716Z,41.78
2019-04-26T08:24:16.911Z,41.27
2019-04-26T08:27:08.785Z,42.38
2019-04-26T08:29:35.936Z,41.27
2019-04-26T08:32:10.097Z,40.61
2019-04-26T08:34:46.674Z,38.76
2019-04-26T08:37:26.361Z,39.50
2019-04-26T08:39:58.584Z,39.74
2019-04-26T08:42:36.936Z,40.77
2019-04-26T08:45:19.603Z,40.47
2019-04-26T08:48:05.573Z,41.28
2019-04-26T08:50:42.285Z,42.68
2019-04-26T08:53:13.482Z,40.04
2019-04-26T08:55:46.968Z,40.17
2019-04-26T08:58:19.889Z,41.51
2019-04-26T09:01:00.060Z,40.61
2019-04-26T09:03:55.025Z,42.77
2019-04-26T09:06:31.099Z,42.84
2019-04-26T09:09:14.303Z,43.91
2019-04-26T09:11:44.314Z,44.16
2019-04-26T09:14:15.638Z,44.73
2019-04-26T09:16:50.414Z,44.02
2019-04-26T09:19:18.592Z,43.33
2019-04-26T09:22:12.911Z,44.86
2019-04-26T09:25:01.037Z,45.91
2019-04-26T09:27:35.951Z,45.54
2019-04-26T09:30:14.180Z,45.23
2019-04-26T09:32:49.150Z,46.65
2019-04-26T09:35:19.621Z,46.34
2019-04-26T09:37:50.133Z,47.92
2019-04-26T09:40:22.671Z,48.18
2019-04-26T09:43:15.023Z,47.89
2019-04-26T09:46:14.551Z,47.35
2019-04-26T09:49:13.154Z,48.05
2019-04-26T09:51:43.573Z,48.49
2019-04-26T09:54:16.796Z,49.02
2019-04-26T09:56:47.261Z,48.32
2019-04-26T09:59:18.346Z,48.43
2019-04-26T10:01:48.728Z,49.17
2019-04-26T10:04:19.301Z,49.30
2019-04-26T10:06:49.689Z,49.84
2019-04-26T10:09:21.157Z,50.16
2019-04-26T10:11:56.131Z,51.12
2019-04-26T10:14:42.784Z,50.21
2019-04-26T10:17:19.478Z,50.57
2019-04-26T10:19:51.710Z,51.05
2019-04-26T10:22:23.197Z,50.27
2019-04-26T10:24:53.701Z,50.97
2019-04-26T10:27:24.084Z,51.40
2019-04-26T10:29:56.133Z,52.18
2019-04-26T10:32:27.867Z,51.34
2019-04-26T10:34:58.399Z,51.90
2019-04-26T10:37:38.943Z,51.76
2019-04-26T10:40:01.072Z,52.13
2019-04-26T10:42:31.769Z,52.44
2019-04-26T10:45:02.272Z,53.03
2019-04-26T10:47:34.366Z,52.50
2019-04-26T10:50:05.290Z,53.13
2019-04-26T10:52:53.110Z,53.72
2019-04-26T10:55:41.226Z,53.73
2019-04-26T10:58:36.325Z,53.39
2019-04-26T11:01:11.646Z,53.51
2019-04-26T11:03:42.176Z,53.67
2019-04-26T11:06:12.752Z,53.44
2019-04-26T11:08:43.130Z,52.75
2019-04-26T11:11:13.672Z,53.46
2019-04-26T11:13:44.107Z,54.44
2019-04-26T11:16:14.514Z,54.28
2019-04-26T11:18:44.974Z,53.79
2019-04-26T11:21:16.356Z,52.95
2019-04-26T11:23:49.933Z,54.58
2019-04-26T11:26:19.761Z,54.25
2019-04-26T11:28:51.308Z,54.24
2019-04-26T11:31:23.349Z,56.01
2019-04-26T11:34:04.646Z,55.87
2019-04-26T11:36:26.574Z,56.33
2019-04-26T11:38:57.175Z,57.14
2019-04-26T11:41:27.629Z,57.09
2019-04-26T11:43:58.190Z,58.07
2019-04-26T11:46:30.070Z,57.76
2019-04-26T11:49:03.248Z,56.85
2019-04-26T11:51:33.009Z,56.88
2019-04-26T11:54:03.511Z,56.51
2019-04-26T11:56:34.105Z,56.85
2019-04-26T11:59:06.361Z,56.42
2019-04-26T12:01:40.202Z,56.25
2019-04-26T12:04:37.093Z,56.38
2019-04-26T12:07:17.146Z,56.64
2019-04-26T12:09:48.707Z,55.95
2019-04-26T12:12:19.147Z,56.87
2019-04-26T12:14:49.550Z,56.99
2019-04-26T12:17:19.977Z,55.76
2019-04-26T12:19:52.276Z,55.95
2019-04-26T12:22:22.563Z,56.51
2019-04-26T12:24:52.990Z,57.18
2019-04-26T12:27:26.566Z,58.15
2019-04-26T12:29:55.614Z,58.64
2019-04-26T12:32:26.114Z,58.94
2019-04-26T12:34:56.571Z,60.43
2019-04-26T12:37:26.892Z,60.32
2019-04-26T12:39:57.356Z,59.57
2019-04-26T12:42:27.786Z,60.09
2019-04-26T12:45:16.727Z,60.01
2019-04-26T12:47:51.393Z,59.36
2019-04-26T12:50:21.872Z,59.01
2019-04-26T12:52:55.528Z,59.65
2019-04-26T12:55:24.517Z,61.08
2019-04-26T12:57:54.978Z,62.42
2019-04-26T13:00:28.589Z,64.15
2019-04-26T13:03:00.830Z,65.64
2019-04-26T13:05:31.248Z,66.77
2019-04-26T13:08:01.574Z,65.08
2019-04-26T13:10:50.933Z,67.97
2019-04-26T13:13:28.379Z,69.19
2019-04-26T13:16:11.511Z,70.36
2019-04-26T13:18:45.339Z,72.42
2019-04-26T13:21:14.071Z,71.76
2019-04-26T13:23:44.515Z,72.74
2019-04-26T13:26:15.012Z,71.95
2019-04-26T13:28:45.464Z,70.75
2019-04-26T13:31:15.915Z,72.23
2019-04-26T13:33:46.344Z,72.55
2019-04-26T13:36:16.828Z,74.27
2019-04-26T13:38:47.243Z,72.50
2019-04-26T13:41:17.711Z,74.10
2019-04-26T13:43:48.143Z,76.99
2019-04-26T13:46:43.382Z,76.42
2019-04-26T13:49:22.587Z,78.59
2019-04-26T13:51:53.133Z,79.30
2019-04-26T13:54:23.597Z,82.32
2019-04-26T13:56:54.014Z,79.98
2019-04-26T13:59:24.421Z,79.33
2019-04-26T14:01:54.863Z,79.55
2019-04-26T14:04:25.227Z,80.06
2019-04-26T14:06:55.576Z,79.89
2019-04-26T14:09:25.963Z,80.22
2019-04-26T14:11:58.027Z,79.21
2019-04-26T14:14:30.253Z,77.67
2019-04-26T14:17:00.718Z,76.28
2019-04-26T14:19:31.142Z,78.88
2019-04-26T14:22:03.231Z,77.00
2019-04-26T14:24:39.118Z,77.61
2019-04-26T14:27:19.425Z,77.19
2019-04-26T14:29:49.842Z,79.82
2019-04-26T14:32:22.867Z,78.17
2019-04-26T14:34:52.451Z,77.44
2019-04-26T14:37:22.971Z,77.96
2019-04-26T14:39:55.335Z,77.87
2019-04-26T14:42:33.741Z,76.67
2019-04-26T14:44:57.577Z,77.69
2019-04-26T14:47:30.394Z,77.42
2019-04-26T14:50:13.089Z,77.69
2019-04-26T14:52:32.240Z,77.37
2019-04-26T14:55:02.693Z,78.46
2019-04-26T14:57:33.941Z,77.65
2019-04-26T15:00:05.200Z,76.19
2019-04-26T15:03:00.555Z,77.17
2019-04-26T15:05:54.029Z,78.12
2019-04-26T15:08:24.585Z,75.46
2019-04-26T15:11:00.785Z,77.39
2019-04-26T15:13:27.323Z,76.19
2019-04-26T15:15:58.131Z,77.76
2019-04-26T15:18:29.236Z,75.25
2019-04-26T15:21:00.883Z,78.08
2019-04-26T15:23:32.881Z,78.34
2019-04-26T15:26:03.531Z,77.76
2019-04-26T15:28:33.960Z,78.57
2019-04-26T15:31:04.307Z,77.74
2019-04-26T15:33:36.097Z,77.54
2019-04-26T15:36:10.583Z,77.46
2019-04-26T15:38:41.677Z,76.79
2019-04-26T15:41:34.276Z,75.50
2019-04-26T15:44:24.871Z,78.08
2019-04-26T15:47:16.975Z,75.53
2019-04-26T15:49:54.015Z,76.02
2019-04-26T15:52:24.399Z,77.60
2019-04-26T15:54:58.946Z,76.54
2019-04-26T15:57:30.902Z,78.86
2019-04-26T15:59:59.242Z,77.50
2019-04-26T16:02:29.644Z,76.54
2019-04-26T16:05:00.038Z,77.86
2019-04-26T16:07:30.507Z,77.53
2019-04-26T16:10:00.984Z,79.03
2019-04-26T16:12:32.082Z,78.49
2019-04-26T16:15:06.398Z,79.04
2019-04-26T16:17:36.191Z,78.52
2019-04-26T16:20:07.820Z,78.40
2019-04-26T16:22:38.167Z,78.28
2019-04-26T16:25:09.025Z,78.43
2019-04-26T16:27:39.439Z,78.34
2019-04-26T16:30:28.375Z,77.86
2019-04-26T16:33:15.847Z,78.97
2019-04-26T16:35:46.352Z,80.51
2019-04-26T16:38:33.226Z,79.75
2019-04-26T16:41:04.310Z,79.11
2019-04-26T16:43:40.264Z,77.63
2019-04-26T16:46:07.457Z,78.91
2019-04-26T16:48:37.900Z,79.58
2019-04-26T16:51:08.776Z,79.22
2019-04-26T16:53:58.491Z,79.33
2019-04-26T16:56:11.679Z,78.65
2019-04-26T16:58:45.239Z,79.37
2019-04-26T17:01:15.087Z,79.52
2019-04-26T17:03:48.127Z,80.63
2019-04-26T17:06:18.261Z,79.91
2019-04-26T17:08:51.558Z,79.10
2019-04-26T17:11:22.787Z,78.10
2019-04-26T17:13:56.912Z,77.69
2019-04-26T17:16:25.681Z,77.66
2019-04-26T17:18:59.541Z,78.50
2019-04-26T17:21:30.109Z,79.86
2019-04-26T17:24:19.472Z,78.25
2019-04-26T17:26:57.195Z,77.72
2019-04-26T17:29:27.535Z,77.84
2019-04-26T17:31:58.005Z,77.48
2019-04-26T17:34:30.265Z,77.74
2019-04-26T17:37:02.382Z,77.92
2019-04-26T17:39:32.972Z,79.37
2019-04-26T17:42:03.438Z,78.18
2019-04-26T17:44:34.160Z,78.23
2019-04-26T17:47:04.730Z,78.96
2019-04-26T17:49:38.351Z,78.26
2019-04-26T17:52:07.404Z,78.44
2019-04-26T17:54:48.995Z,77.80
2019-04-26T17:57:14.443Z,78.42
2019-04-26T17:59:47.802Z,78.16
2019-04-26T18:02:25.881Z,77.56
2019-04-26T18:04:58.198Z,76.72
2019-04-26T18:07:37.553Z,78.27
2019-04-26T18:09:52.510Z,78.03
2019-04-26T18:12:22.914Z,79.09
2019-04-26T18:14:53.213Z,77.71
2019-04-26T18:17:33.061Z,77.55
2019-04-26T18:20:13.522Z,77.81
2019-04-26T18:22:47.696Z,77.68
2019-04-26T18:25:18.185Z,77.01
2019-04-26T18:27:48.683Z,77.10
2019-04-26T18:30:19.354Z,77.97
2019-04-26T18:32:49.850Z,78.11
2019-04-26T18:35:20.288Z,78.08
2019-04-26T18:37:50.609Z,76.92
2019-04-26T18:40:23.061Z,77.44
2019-04-26T18:42:55.083Z,75.84
2019-04-26T18:45:29.688Z,76.99
2019-04-26T18:48:01.464Z,75.94
2019-04-26T18:50:32.853Z,76.13
2019-04-26T18:53:20.387Z,76.18
2019-04-26T18:55:53.449Z,76.91
2019-04-26T18:58:23.975Z,76.62
2019-04-26T19:00:57.339Z,76.66
2019-04-26T19:03:30.153Z,76.92
2019-04-26T19:06:02.575Z,75.26
2019-04-26T19:08:43.643Z,75.93
2019-04-26T19:11:03.529Z,76.80
2019-04-26T19:13:56.947Z,77.28
2019-04-26T19:16:41.166Z,77.25
2019-04-26T19:19:39.276Z,77.37
2019-04-26T19:22:13.948Z,77.37
2019-04-26T19:24:42.329Z,77.37
2019-04-26T19:27:12.678Z,77.56
2019-04-26T19:29:43.377Z,77.27
2019-04-26T19:32:13.852Z,77.63
2019-04-26T19:34:44.288Z,77.34
2019-04-26T19:37:14.671Z,77.41
2019-04-26T19:39:45.128Z,77.21
2019-04-26T19:42:15.623Z,77.76
2019-04-26T19:44:49.435Z,77.17
2019-04-26T19:47:43.954Z,78.20
2019-04-26T19:50:30.619Z,77.88
2019-04-26T19:53:10.305Z,77.52
2019-04-26T19:56:05.375Z,78.40
2019-04-26T19:58:36.550Z,77.31
2019-04-26T20:01:06.961Z,78.31
2019-04-26T20:03:37.394Z,78.01
2019-04-26T20:06:07.735Z,78.01
2019-04-26T20:08:43.939Z,78.49
2019-04-26T20:11:12.767Z,78.45
2019-04-26T20:13:42.781Z,78.31
2019-04-26T20:16:14.622Z,78.35
2019-04-26T20:18:44.992Z,78.89
2019-04-26T20:21:15.653Z,79.47
2019-04-26T20:23:47.574Z,79.09
2019-04-26T20:26:18.199Z,79.10
2019-04-26T20:28:48.652Z,78.15
2019-04-26T20:31:51.944Z,78.20
2019-04-26T20:34:22.132Z,78.44
2019-04-26T20:36:52.603Z,78.48
2019-04-26T20:39:24.080Z,78.30
2019-04-26T20:42:01.081Z,78.71
2019-04-26T20:44:28.872Z,78.61
2019-04-26T20:46:59.829Z,78.77
2019-04-26T20:49:31.995Z,78.32
2019-04-26T20:52:02.391Z,78.83
2019-04-26T20:54:32.733Z,78.51
2019-04-26T20:57:03.286Z,78.91
2019-04-26T20:59:33.576Z,78.67
2019-04-26T21:02:08.151Z,78.62
2019-04-26T21:04:38.467Z,79.15
2019-04-26T21:07:11.334Z,78.76
2019-04-26T21:09:43.399Z,78.82
2019-04-26T21:12:15.862Z,77.85
2019-04-26T21:14:45.696Z,78.04
2019-04-26T21:17:19.350Z,77.79
2019-04-26T21:19:49.894Z,77.52
2019-04-26T21:22:25.483Z,78.30
2019-04-26T21:24:58.490Z,77.42
2019-04-26T21:28:02.446Z,77.37
2019-04-26T21:30:39.439Z,77.91
2019-04-26T21:33:28.621Z,77.80
2019-04-26T21:36:29.539Z,77.49
2019-04-26T21:39:07.419Z,77.17
2019-04-26T21:41:40.422Z,77.16
2019-04-26T21:44:12.306Z,77.53
2019-04-26T21:46:43.478Z,76.33
2019-04-26T21:49:20.376Z,76.71
2019-04-26T21:51:51.165Z,76.40
2019-04-26T21:54:19.417Z,76.63
2019-04-26T21:56:50.013Z,76.37
2019-04-26T21:59:20.359Z,76.43
2019-04-26T22:01:53.879Z,76.68
2019-04-26T22:04:24.433Z,76.45
2019-04-26T22:06:55.646Z,76.29
2019-04-26T22:09:48.026Z,76.57
2019-04-26T22:12:18.570Z,75.75
2019-04-26T22:14:58.275Z,76.78
2019-04-26T22:17:40.618Z,76.26
2019-04-26T22:20:18.765Z,75.94
2019-04-26T22:23:11.521Z,76.24
2019-04-26T22:25:42.190Z,76.35
2019-04-26T22:28:13.120Z,76.41
2019-04-26T22:30:43.664Z,76.00
2019-04-26T22:33:14.068Z,76.27
2019-04-26T22:35:44.424Z,75.69
2019-04-26T22:38:17.471Z,75.51
2019-04-26T22:40:48.523Z,75.51
2019-04-26T22:43:37.869Z,76.56
2019-04-26T22:46:45.165Z,76.76
2019-04-26T22:49:05.924Z,75.42
2019-04-26T22:51:37.313Z,76.11
2019-04-26T22:54:07.780Z,76.87
2019-04-26T22:56:38.417Z,76.70
2019-04-26T22:59:09.062Z,77.04
2019-04-26T23:01:44.801Z,76.63
2019-04-26T23:04:16.238Z,76.71
2019-04-26T23:06:46.794Z,77.46
2019-04-26T23:09:17.330Z,76.39
2019-04-26T23:11:53.862Z,76.75
2019-04-26T23:14:43.968Z,76.24
2019-04-26T23:17:34.758Z,77.43
2019-04-26T23:20:23.388Z,76.84
2019-04-26T23:23:05.201Z,76.46
2019-04-26T23:25:36.522Z,77.13
2019-04-26T23:28:06.988Z,76.35
2019-04-26T23:30:37.496Z,76.07
2019-04-26T23:33:07.907Z,75.76
2019-04-26T23:35:43.498Z,76.32
2019-04-26T23:38:10.523Z,75.55
2019-04-26T23:40:42.983Z,75.55
2019-04-26T23:43:13.512Z,76.04
2019-04-26T23:45:48.305Z,76.35
2019-04-26T23:48:16.082Z,76.10
2019-04-26T23:50:46.500Z,76.60
2019-04-26T23:53:20.207Z,76.83
2019-04-26T23:55:49.130Z,77.75
2019-04-26T23:58:19.581Z,77.76
